Albuquerque, NM

5:19 AM MDT on April 27, 2015 (GMT -0600)
Albuquerque International Sunport | | Change Station
CLOSE
Current Station
Airport
Location: Albuquerque,
Elevation: 5312 ft
Nearby Weather Stations

Elev 5312 ft 35.04 °N, 106.61 °W | Updated 27 minutes ago

Mostly Cloudy
Mostly Cloudy
44 °F
Feels Like 39 °F
N
10
Wind Variable Wind from West

Today
High -- | Low -- °F
--% Chance of Precip.
Yesterday
High -- | Low -- °F
Precip. -- in
6:20 AM 7:48 PM
Waxing Gibbous, 64% visible
Pressure 29.86 in
Visibility 10.0 miles
Clouds Few 3500 ft
Scattered Clouds 8500 ft
Scattered Clouds 16000 ft
Mostly Cloudy 23000 ft
Windchill 39 °F
Dew Point 39 °F
Humidity 82%
Rainfall 0.00 in
Snow Depth Not available.
UV 0 out of 12
Pollen 4.10 out of 12
Air Quality Not available.
Flu Activity Local Activity
METAR KABQ 271052Z 28009KT 10SM FEW035 SCT085 SCT160 BKN230 07/04 A2993 RMK AO2 SLP109 MTNS OBSC NE-SE T00670039

More Conditions Fewer Conditions

Pressure 29.86 in
Visibility 10.0 miles
Clouds Few 3500 ft
Scattered Clouds 8500 ft
Scattered Clouds 16000 ft
Mostly Cloudy 23000 ft
Windchill 39 °F
Dew Point 39 °F
Humidity 82%
Rainfall 0.00 in
Snow Depth Not available.
UV 0 out of 12
Pollen 4.10 out of 12
Air Quality Not available.
Flu Activity Local Activity
METAR KABQ 271052Z 28009KT 10SM FEW035 SCT085 SCT160 BKN230 07/04 A2993 RMK AO2 SLP109 MTNS OBSC NE-SE T00670039

More Conditions Fewer Conditions

10-Day Weather Forecast

Almanac

Astronomy

Apr. 27, 2015 Rise Set
Actual Time
Civil Twilight
Nautical Twilight
Astronomical Twilight
Moon
Length of Visible Light
Length of Day
Tomorrow will be .
, % of the Moon is Illuminated

Today's Extremes

State Highs State Lows

Community

WunderPhotos

Upload Photos

1,817,282 photos uploaded!

WunderBlogs® & News

Nearby

Air Quality

  Air Quality AQ Index Pollutant
Not available.

Snow Depth

Station Depth Elevation

Earthquake Activity

City Distance Mag. Time & Date
Minimum magnitude displayed is 2.5.

Coastal Water Temperatures

Place Temperature

Stations

Nearby Weather Stations

Station Location Temp. Windchill Dew Point Humidity Wind Precip. Elev Updated Type